sensor_id;sensor_type;location;lat;lon;timestamp;P1;durP1;ratioP1;P2;durP2;ratioP2
20880;SDS011;10600;53.096;8.802;2023-02-27T00:00:06;16.83;;;10.35;;
20880;SDS011;10600;53.096;8.802;2023-02-27T00:01:15;18.23;;;9.30;;
20880;SDS011;10600;53.096;8.802;2023-02-27T00:02:16;17.30;;;9.07;;
20880;SDS011;10600;53.096;8.802;2023-02-27T00:03:17;17.45;;;8.93;;
20880;SDS011;10600;53.096;8.802;2023-02-27T00:04:17;17.63;;;9.13;;
20880;SDS011;10600;53.096;8.802;2023-02-27T00:05:18;17.20;;;9.15;;
20880;SDS011;10600;53.096;8.802;2023-02-27T00:06:21;20.17;;;9.23;;
20880;SDS011;10600;53.096;8.802;2023-02-27T00:07:22;16.83;;;9.38;;
20880;SDS011;10600;53.096;8.802;2023-02-27T00:08:25;19.42;;;8.73;;
20880;SDS011;10600;53.096;8.802;2023-02-27T00:09:25;17.75;;;8.90;;
20880;SDS011;10600;53.096;8.802;2023-02-27T00:10:26;16.52;;;9.10;;
20880;SDS011;10600;53.096;8.802;2023-02-27T00:11:26;14.38;;;8.27;;
20880;SDS011;10600;53.096;8.802;2023-02-27T00:12:27;17.13;;;9.27;;
20880;SDS011;10600;53.096;8.802;2023-02-27T00:13:29;16.00;;;9.50;;
20880;SDS011;10600;53.096;8.802;2023-02-27T00:14:30;19.90;;;9.32;;
20880;SDS011;10600;53.096;8.802;2023-02-27T00:15:31;15.95;;;9.60;;
20880;SDS011;10600;53.096;8.802;2023-02-27T00:16:31;17.23;;;9.15;;
20880;SDS011;10600;53.096;8.802;2023-02-27T00:17:33;18.65;;;9.23;;
20880;SDS011;10600;53.096;8.802;2023-02-27T00:18:34;15.88;;;9.25;;
20880;SDS011;10600;53.096;8.802;2023-02-27T00:19:35;16.40;;;9.85;;
20880;SDS011;10600;53.096;8.802;2023-02-27T00:20:35;19.42;;;9.32;;
20880;SDS011;10600;53.096;8.802;2023-02-27T00:21:37;18.83;;;9.20;;
20880;SDS011;10600;53.096;8.802;2023-02-27T00:22:38;15.90;;;9.25;;
20880;SDS011;10600;53.096;8.802;2023-02-27T00:23:39;22.38;;;8.98;;
20880;SDS011;10600;53.096;8.802;2023-02-27T00:24:40;17.60;;;9.60;;
20880;SDS011;10600;53.096;8.802;2023-02-27T00:25:41;16.92;;;9.20;;
20880;SDS011;10600;53.096;8.802;2023-02-27T00:26:41;27.95;;;11.55;;
20880;SDS011;10600;53.096;8.802;2023-02-27T00:27:42;17.40;;;9.30;;
20880;SDS011;10600;53.096;8.802;2023-02-27T00:28:43;22.77;;;9.55;;
20880;SDS011;10600;53.096;8.802;2023-02-27T00:29:43;15.77;;;9.07;;
20880;SDS011;10600;53.096;8.802;2023-02-27T00:30:44;15.43;;;9.43;;
20880;SDS011;10600;53.096;8.802;2023-02-27T00:31:45;15.65;;;9.10;;
20880;SDS011;10600;53.096;8.802;2023-02-27T00:32:45;17.95;;;9.32;;
20880;SDS011;10600;53.096;8.802;2023-02-27T00:33:46;19.25;;;9.25;;
20880;SDS011;10600;53.096;8.802;2023-02-27T00:34:46;18.23;;;9.52;;
20880;SDS011;10600;53.096;8.802;2023-02-27T00:35:56;18.10;;;8.57;;
20880;SDS011;10600;53.096;8.802;2023-02-27T00:36:58;18.85;;;9.27;;
20880;SDS011;10600;53.096;8.802;2023-02-27T00:37:59;17.73;;;10.27;;
20880;SDS011;10600;53.096;8.802;2023-02-27T00:38:59;17.67;;;9.57;;
20880;SDS011;10600;53.096;8.802;2023-02-27T00:40:00;22.05;;;10.30;;
20880;SDS011;10600;53.096;8.802;2023-02-27T00:41:01;18.55;;;9.23;;
20880;SDS011;10600;53.096;8.802;2023-02-27T00:42:01;18.23;;;8.77;;
20880;SDS011;10600;53.096;8.802;2023-02-27T00:43:03;14.52;;;8.40;;
20880;SDS011;10600;53.096;8.802;2023-02-27T00:44:03;16.85;;;9.68;;
20880;SDS011;10600;53.096;8.802;2023-02-27T00:45:04;15.90;;;9.95;;
20880;SDS011;10600;53.096;8.802;2023-02-27T00:46:05;16.60;;;9.45;;
20880;SDS011;10600;53.096;8.802;2023-02-27T00:47:06;16.88;;;8.65;;
20880;SDS011;10600;53.096;8.802;2023-02-27T00:48:07;17.75;;;9.15;;
20880;SDS011;10600;53.096;8.802;2023-02-27T00:49:08;16.58;;;9.63;;
20880;SDS011;10600;53.096;8.802;2023-02-27T00:50:09;21.27;;;10.27;;
20880;SDS011;10600;53.096;8.802;2023-02-27T00:51:10;16.02;;;9.60;;
20880;SDS011;10600;53.096;8.802;2023-02-27T00:52:10;16.27;;;8.80;;
20880;SDS011;10600;53.096;8.802;2023-02-27T00:53:11;18.08;;;10.13;;
20880;SDS011;10600;53.096;8.802;2023-02-27T00:54:12;17.17;;;9.20;;
20880;SDS011;10600;53.096;8.802;2023-02-27T00:55:12;16.50;;;8.95;;
20880;SDS011;10600;53.096;8.802;2023-02-27T00:56:13;16.35;;;8.73;;
20880;SDS011;10600;53.096;8.802;2023-02-27T00:57:14;14.90;;;8.68;;
20880;SDS011;10600;53.096;8.802;2023-02-27T00:58:15;14.52;;;8.70;;
20880;SDS011;10600;53.096;8.802;2023-02-27T00:59:16;16.50;;;8.02;;
20880;SDS011;10600;53.096;8.802;2023-02-27T01:00:16;17.17;;;9.65;;
20880;SDS011;10600;53.096;8.802;2023-02-27T01:01:17;20.08;;;9.70;;
20880;SDS011;10600;53.096;8.802;2023-02-27T01:02:18;16.65;;;8.95;;
20880;SDS011;10600;53.096;8.802;2023-02-27T01:03:18;18.02;;;8.95;;
20880;SDS011;10600;53.096;8.802;2023-02-27T01:04:19;16.95;;;8.80;;
20880;SDS011;10600;53.096;8.802;2023-02-27T01:05:20;19.17;;;9.27;;
20880;SDS011;10600;53.096;8.802;2023-02-27T01:06:21;20.30;;;8.70;;
20880;SDS011;10600;53.096;8.802;2023-02-27T01:07:21;17.10;;;9.25;;
20880;SDS011;10600;53.096;8.802;2023-02-27T01:08:22;13.15;;;8.45;;
20880;SDS011;10600;53.096;8.802;2023-02-27T01:09:23;16.58;;;8.52;;
20880;SDS011;10600;53.096;8.802;2023-02-27T01:10:24;18.13;;;9.13;;
20880;SDS011;10600;53.096;8.802;2023-02-27T01:11:25;16.00;;;9.05;;
20880;SDS011;10600;53.096;8.802;2023-02-27T01:12:26;16.58;;;9.40;;
20880;SDS011;10600;53.096;8.802;2023-02-27T01:13:27;14.13;;;8.50;;
20880;SDS011;10600;53.096;8.802;2023-02-27T01:14:27;13.43;;;7.88;;
20880;SDS011;10600;53.096;8.802;2023-02-27T01:15:28;16.95;;;8.45;;
20880;SDS011;10600;53.096;8.802;2023-02-27T01:16:29;16.10;;;8.75;;
20880;SDS011;10600;53.096;8.802;2023-02-27T01:17:31;17.55;;;8.50;;
20880;SDS011;10600;53.096;8.802;2023-02-27T01:18:32;16.27;;;9.45;;
20880;SDS011;10600;53.096;8.802;2023-02-27T01:19:32;12.88;;;7.53;;
20880;SDS011;10600;53.096;8.802;2023-02-27T01:20:33;15.50;;;8.73;;
20880;SDS011;10600;53.096;8.802;2023-02-27T01:21:34;15.75;;;7.88;;
20880;SDS011;10600;53.096;8.802;2023-02-27T01:22:34;14.60;;;8.00;;
20880;SDS011;10600;53.096;8.802;2023-02-27T01:23:35;15.65;;;7.50;;
20880;SDS011;10600;53.096;8.802;2023-02-27T01:24:36;17.05;;;7.47;;
20880;SDS011;10600;53.096;8.802;2023-02-27T01:25:36;15.77;;;8.52;;
20880;SDS011;10600;53.096;8.802;2023-02-27T01:26:37;15.20;;;8.02;;
20880;SDS011;10600;53.096;8.802;2023-02-27T01:27:38;16.45;;;8.20;;
20880;SDS011;10600;53.096;8.802;2023-02-27T01:28:39;13.30;;;8.30;;
20880;SDS011;10600;53.096;8.802;2023-02-27T01:29:40;17.60;;;7.97;;
20880;SDS011;10600;53.096;8.802;2023-02-27T01:30:41;13.95;;;8.30;;
20880;SDS011;10600;53.096;8.802;2023-02-27T01:31:41;17.20;;;8.32;;
20880;SDS011;10600;53.096;8.802;2023-02-27T01:32:42;18.85;;;8.60;;
20880;SDS011;10600;53.096;8.802;2023-02-27T01:33:43;15.10;;;7.68;;
20880;SDS011;10600;53.096;8.802;2023-02-27T01:34:43;13.45;;;7.05;;
20880;SDS011;10600;53.096;8.802;2023-02-27T01:35:44;15.40;;;7.32;;
20880;SDS011;10600;53.096;8.802;2023-02-27T01:36:45;14.25;;;8.02;;
20880;SDS011;10600;53.096;8.802;2023-02-27T01:37:45;22.35;;;7.22;;
20880;SDS011;10600;53.096;8.802;2023-02-27T01:38:46;15.90;;;7.22;;
20880;SDS011;10600;53.096;8.802;2023-02-27T01:39:47;13.20;;;6.07;;
20880;SDS011;10600;53.096;8.802;2023-02-27T01:40:47;11.95;;;6.93;;
20880;SDS011;10600;53.096;8.802;2023-02-27T01:41:48;16.00;;;6.70;;
20880;SDS011;10600;53.096;8.802;2023-02-27T01:42:50;12.65;;;7.10;;
20880;SDS011;10600;53.096;8.802;2023-02-27T01:44:01;15.40;;;6.72;;
20880;SDS011;10600;53.096;8.802;2023-02-27T01:46:10;12.98;;;7.03;;
20880;SDS011;10600;53.096;8.802;2023-02-27T01:47:11;13.18;;;6.43;;
20880;SDS011;10600;53.096;8.802;2023-02-27T01:49:32;13.85;;;6.75;;
20880;SDS011;10600;53.096;8.802;2023-02-27T01:50:34;15.40;;;6.85;;
20880;SDS011;10600;53.096;8.802;2023-02-27T01:51:44;11.90;;;7.53;;
20880;SDS011;10600;53.096;8.802;2023-02-27T01:53:05;13.18;;;6.72;;
20880;SDS011;10600;53.096;8.802;2023-02-27T01:54:06;15.35;;;8.40;;
20880;SDS011;10600;53.096;8.802;2023-02-27T01:55:09;17.88;;;7.93;;
20880;SDS011;10600;53.096;8.802;2023-02-27T01:56:21;10.80;;;6.88;;
20880;SDS011;10600;53.096;8.802;2023-02-27T01:57:27;15.23;;;7.68;;
20880;SDS011;10600;53.096;8.802;2023-02-27T01:58:28;14.73;;;7.00;;
20880;SDS011;10600;53.096;8.802;2023-02-27T01:59:29;12.80;;;6.82;;
20880;SDS011;10600;53.096;8.802;2023-02-27T02:00:29;13.80;;;7.38;;
20880;SDS011;10600;53.096;8.802;2023-02-27T02:01:30;13.05;;;7.45;;
20880;SDS011;10600;53.096;8.802;2023-02-27T02:02:34;12.48;;;7.43;;
20880;SDS011;10600;53.096;8.802;2023-02-27T02:03:47;16.92;;;7.60;;
20880;SDS011;10600;53.096;8.802;2023-02-27T02:04:56;14.32;;;6.75;;
20880;SDS011;10600;53.096;8.802;2023-02-27T02:05:58;11.98;;;6.88;;
20880;SDS011;10600;53.096;8.802;2023-02-27T02:07:02;11.60;;;7.20;;
20880;SDS011;10600;53.096;8.802;2023-02-27T02:08:08;13.77;;;7.28;;
20880;SDS011;10600;53.096;8.802;2023-02-27T02:09:13;12.65;;;6.63;;
20880;SDS011;10600;53.096;8.802;2023-02-27T02:10:16;14.93;;;7.20;;
20880;SDS011;10600;53.096;8.802;2023-02-27T02:11:18;14.38;;;6.65;;
20880;SDS011;10600;53.096;8.802;2023-02-27T02:12:23;9.95;;;6.20;;
20880;SDS011;10600;53.096;8.802;2023-02-27T02:13:27;14.40;;;6.60;;
20880;SDS011;10600;53.096;8.802;2023-02-27T02:14:28;14.00;;;7.18;;
20880;SDS011;10600;53.096;8.802;2023-02-27T02:15:32;11.65;;;6.55;;
20880;SDS011;10600;53.096;8.802;2023-02-27T02:20:55;17.17;;;6.47;;
20880;SDS011;10600;53.096;8.802;2023-02-27T02:35:48;13.77;;;6.72;;
20880;SDS011;10600;53.096;8.802;2023-02-27T02:42:02;14.15;;;7.28;;
20880;SDS011;10600;53.096;8.802;2023-02-27T02:43:35;15.63;;;6.80;;
20880;SDS011;10600;53.096;8.802;2023-02-27T02:44:53;12.30;;;6.55;;
20880;SDS011;10600;53.096;8.802;2023-02-27T02:46:18;13.82;;;6.70;;
20880;SDS011;10600;53.096;8.802;2023-02-27T02:48:41;13.57;;;6.28;;
20880;SDS011;10600;53.096;8.802;2023-02-27T02:51:27;10.48;;;5.80;;
20880;SDS011;10600;53.096;8.802;2023-02-27T02:53:59;11.93;;;6.85;;
20880;SDS011;10600;53.096;8.802;2023-02-27T02:56:31;12.52;;;6.43;;
20880;SDS011;10600;53.096;8.802;2023-02-27T02:57:48;13.40;;;6.13;;
20880;SDS011;10600;53.096;8.802;2023-02-27T02:58:56;13.50;;;6.43;;
20880;SDS011;10600;53.096;8.802;2023-02-27T03:00:13;9.75;;;6.65;;
20880;SDS011;10600;53.096;8.802;2023-02-27T03:01:22;11.25;;;6.57;;
20880;SDS011;10600;53.096;8.802;2023-02-27T03:02:28;8.15;;;6.18;;
20880;SDS011;10600;53.096;8.802;2023-02-27T03:03:34;12.50;;;6.10;;
20880;SDS011;10600;53.096;8.802;2023-02-27T03:04:50;18.20;;;7.03;;
20880;SDS011;10600;53.096;8.802;2023-02-27T03:07:28;12.73;;;6.22;;
20880;SDS011;10600;53.096;8.802;2023-02-27T03:08:36;12.00;;;7.25;;
20880;SDS011;10600;53.096;8.802;2023-02-27T03:09:52;14.93;;;7.40;;
20880;SDS011;10600;53.096;8.802;2023-02-27T03:11:09;10.70;;;7.00;;
20880;SDS011;10600;53.096;8.802;2023-02-27T03:12:10;13.43;;;7.10;;
20880;SDS011;10600;53.096;8.802;2023-02-27T03:13:23;14.88;;;7.30;;
20880;SDS011;10600;53.096;8.802;2023-02-27T03:14:37;12.32;;;7.30;;
20880;SDS011;10600;53.096;8.802;2023-02-27T03:17:42;14.35;;;7.68;;
20880;SDS011;10600;53.096;8.802;2023-02-27T03:18:49;12.90;;;7.93;;
20880;SDS011;10600;53.096;8.802;2023-02-27T03:19:56;14.15;;;8.10;;
20880;SDS011;10600;53.096;8.802;2023-02-27T03:21:02;15.07;;;8.18;;
20880;SDS011;10600;53.096;8.802;2023-02-27T03:22:08;15.23;;;8.07;;
20880;SDS011;10600;53.096;8.802;2023-02-27T03:23:18;15.10;;;8.82;;
20880;SDS011;10600;53.096;8.802;2023-02-27T03:26:09;14.18;;;8.40;;
20880;SDS011;10600;53.096;8.802;2023-02-27T03:27:12;18.60;;;10.23;;
20880;SDS011;10600;53.096;8.802;2023-02-27T03:28:18;16.85;;;9.07;;
20880;SDS011;10600;53.096;8.802;2023-02-27T03:29:25;14.02;;;8.88;;
20880;SDS011;10600;53.096;8.802;2023-02-27T03:30:37;18.45;;;9.75;;
20880;SDS011;10600;53.096;8.802;2023-02-27T03:31:55;14.43;;;9.00;;
20880;SDS011;10600;53.096;8.802;2023-02-27T03:33:14;15.75;;;9.30;;
20880;SDS011;10600;53.096;8.802;2023-02-27T03:34:28;19.27;;;9.68;;
20880;SDS011;10600;53.096;8.802;2023-02-27T03:35:53;20.33;;;9.48;;
20880;SDS011;10600;53.096;8.802;2023-02-27T03:37:05;15.38;;;9.00;;
20880;SDS011;10600;53.096;8.802;2023-02-27T03:38:21;18.63;;;9.50;;
20880;SDS011;10600;53.096;8.802;2023-02-27T03:40:53;20.60;;;9.52;;
20880;SDS011;10600;53.096;8.802;2023-02-27T03:44:33;18.98;;;9.32;;
20880;SDS011;10600;53.096;8.802;2023-02-27T03:45:46;17.70;;;9.27;;
20880;SDS011;10600;53.096;8.802;2023-02-27T03:46:54;14.05;;;9.10;;
20880;SDS011;10600;53.096;8.802;2023-02-27T03:47:55;17.27;;;9.93;;
20880;SDS011;10600;53.096;8.802;2023-02-27T03:48:56;19.58;;;10.00;;
20880;SDS011;10600;53.096;8.802;2023-02-27T03:49:56;16.27;;;10.23;;
20880;SDS011;10600;53.096;8.802;2023-02-27T03:50:58;18.42;;;10.30;;
20880;SDS011;10600;53.096;8.802;2023-02-27T03:51:59;16.40;;;9.82;;
20880;SDS011;10600;53.096;8.802;2023-02-27T03:53:00;17.27;;;9.32;;
20880;SDS011;10600;53.096;8.802;2023-02-27T03:54:30;21.48;;;10.02;;
20880;SDS011;10600;53.096;8.802;2023-02-27T03:55:34;19.70;;;10.05;;
20880;SDS011;10600;53.096;8.802;2023-02-27T03:56:39;18.05;;;10.18;;
20880;SDS011;10600;53.096;8.802;2023-02-27T03:57:43;21.92;;;11.43;;
20880;SDS011;10600;53.096;8.802;2023-02-27T03:58:46;21.75;;;10.57;;
20880;SDS011;10600;53.096;8.802;2023-02-27T03:59:47;19.42;;;10.63;;
20880;SDS011;10600;53.096;8.802;2023-02-27T04:00:48;18.92;;;10.90;;
20880;SDS011;10600;53.096;8.802;2023-02-27T04:01:49;22.67;;;11.63;;
20880;SDS011;10600;53.096;8.802;2023-02-27T04:02:51;23.08;;;11.70;;
20880;SDS011;10600;53.096;8.802;2023-02-27T04:03:56;25.20;;;12.20;;
20880;SDS011;10600;53.096;8.802;2023-02-27T04:04:59;21.35;;;11.05;;
20880;SDS011;10600;53.096;8.802;2023-02-27T04:06:00;20.63;;;11.88;;
20880;SDS011;10600;53.096;8.802;2023-02-27T04:07:27;20.67;;;11.05;;
20880;SDS011;10600;53.096;8.802;2023-02-27T04:09:06;21.08;;;11.68;;
20880;SDS011;10600;53.096;8.802;2023-02-27T04:13:38;19.73;;;12.63;;
20880;SDS011;10600;53.096;8.802;2023-02-27T04:15:03;21.52;;;12.57;;
20880;SDS011;10600;53.096;8.802;2023-02-27T04:16:11;20.63;;;12.35;;
20880;SDS011;10600;53.096;8.802;2023-02-27T04:22:12;25.30;;;13.40;;
20880;SDS011;10600;53.096;8.802;2023-02-27T04:24:54;27.15;;;14.20;;
20880;SDS011;10600;53.096;8.802;2023-02-27T04:27:36;20.75;;;14.23;;
20880;SDS011;10600;53.096;8.802;2023-02-27T04:28:40;25.27;;;12.52;;
20880;SDS011;10600;53.096;8.802;2023-02-27T04:30:57;26.27;;;11.38;;
20880;SDS011;10600;53.096;8.802;2023-02-27T04:35:36;23.65;;;12.98;;
20880;SDS011;10600;53.096;8.802;2023-02-27T04:39:05;20.77;;;12.35;;
20880;SDS011;10600;53.096;8.802;2023-02-27T04:40:19;25.33;;;12.85;;
20880;SDS011;10600;53.096;8.802;2023-02-27T04:41:28;25.85;;;13.75;;
20880;SDS011;10600;53.096;8.802;2023-02-27T04:42:40;25.00;;;13.93;;
20880;SDS011;10600;53.096;8.802;2023-02-27T04:43:48;29.48;;;13.73;;
20880;SDS011;10600;53.096;8.802;2023-02-27T04:44:50;24.17;;;15.20;;
20880;SDS011;10600;53.096;8.802;2023-02-27T04:45:55;32.85;;;14.40;;
20880;SDS011;10600;53.096;8.802;2023-02-27T04:46:59;22.50;;;12.27;;
20880;SDS011;10600;53.096;8.802;2023-02-27T04:48:04;24.88;;;13.93;;
20880;SDS011;10600;53.096;8.802;2023-02-27T04:49:32;25.50;;;14.68;;
20880;SDS011;10600;53.096;8.802;2023-02-27T04:50:46;29.40;;;14.60;;
20880;SDS011;10600;53.096;8.802;2023-02-27T04:52:14;30.77;;;14.32;;
20880;SDS011;10600;53.096;8.802;2023-02-27T04:54:03;24.88;;;14.13;;
20880;SDS011;10600;53.096;8.802;2023-02-27T04:55:15;26.45;;;15.52;;
20880;SDS011;10600;53.096;8.802;2023-02-27T04:56:26;28.75;;;14.30;;
20880;SDS011;10600;53.096;8.802;2023-02-27T04:57:38;24.48;;;13.93;;
20880;SDS011;10600;53.096;8.802;2023-02-27T04:58:47;24.33;;;15.48;;
20880;SDS011;10600;53.096;8.802;2023-02-27T04:59:52;20.13;;;12.07;;
20880;SDS011;10600;53.096;8.802;2023-02-27T05:00:56;24.67;;;13.60;;
20880;SDS011;10600;53.096;8.802;2023-02-27T05:02:05;31.02;;;14.38;;
20880;SDS011;10600;53.096;8.802;2023-02-27T05:03:12;33.17;;;15.85;;
20880;SDS011;10600;53.096;8.802;2023-02-27T05:04:17;28.40;;;14.85;;
20880;SDS011;10600;53.096;8.802;2023-02-27T05:05:23;25.80;;;14.30;;
20880;SDS011;10600;53.096;8.802;2023-02-27T05:06:31;30.17;;;15.90;;
20880;SDS011;10600;53.096;8.802;2023-02-27T05:07:37;23.20;;;14.88;;
20880;SDS011;10600;53.096;8.802;2023-02-27T05:08:43;28.02;;;15.00;;
20880;SDS011;10600;53.096;8.802;2023-02-27T05:09:55;27.77;;;15.95;;
20880;SDS011;10600;53.096;8.802;2023-02-27T05:11:08;30.55;;;16.55;;
20880;SDS011;10600;53.096;8.802;2023-02-27T05:12:22;28.45;;;15.60;;
20880;SDS011;10600;53.096;8.802;2023-02-27T05:13:25;33.70;;;16.13;;
20880;SDS011;10600;53.096;8.802;2023-02-27T05:14:42;29.92;;;14.70;;
20880;SDS011;10600;53.096;8.802;2023-02-27T05:15:53;32.47;;;16.10;;
20880;SDS011;10600;53.096;8.802;2023-02-27T05:17:07;36.28;;;17.10;;
20880;SDS011;10600;53.096;8.802;2023-02-27T05:18:13;30.10;;;16.73;;
20880;SDS011;10600;53.096;8.802;2023-02-27T05:19:16;32.90;;;18.05;;
20880;SDS011;10600;53.096;8.802;2023-02-27T05:20:19;32.20;;;17.17;;
20880;SDS011;10600;53.096;8.802;2023-02-27T05:21:41;38.30;;;18.50;;
20880;SDS011;10600;53.096;8.802;2023-02-27T05:23:00;27.75;;;16.85;;
20880;SDS011;10600;53.096;8.802;2023-02-27T05:25:33;37.40;;;18.48;;
20880;SDS011;10600;53.096;8.802;2023-02-27T05:26:45;33.22;;;19.45;;
20880;SDS011;10600;53.096;8.802;2023-02-27T05:28:16;29.83;;;17.83;;
20880;SDS011;10600;53.096;8.802;2023-02-27T05:30:56;31.33;;;17.35;;
20880;SDS011;10600;53.096;8.802;2023-02-27T05:32:25;30.60;;;18.60;;
20880;SDS011;10600;53.096;8.802;2023-02-27T05:35:14;31.25;;;18.38;;
20880;SDS011;10600;53.096;8.802;2023-02-27T05:36:19;29.63;;;18.80;;
20880;SDS011;10600;53.096;8.802;2023-02-27T05:37:59;31.23;;;17.77;;
20880;SDS011;10600;53.096;8.802;2023-02-27T05:39:05;32.78;;;18.38;;
20880;SDS011;10600;53.096;8.802;2023-02-27T05:40:08;30.58;;;17.88;;
20880;SDS011;10600;53.096;8.802;2023-02-27T05:41:22;35.10;;;18.98;;
20880;SDS011;10600;53.096;8.802;2023-02-27T05:42:29;32.80;;;18.80;;
20880;SDS011;10600;53.096;8.802;2023-02-27T05:43:34;30.80;;;18.83;;
20880;SDS011;10600;53.096;8.802;2023-02-27T05:44:39;42.83;;;19.08;;
20880;SDS011;10600;53.096;8.802;2023-02-27T05:45:43;34.17;;;17.92;;
20880;SDS011;10600;53.096;8.802;2023-02-27T05:46:48;28.92;;;18.15;;
20880;SDS011;10600;53.096;8.802;2023-02-27T05:47:56;31.25;;;19.15;;
20880;SDS011;10600;53.096;8.802;2023-02-27T05:49:12;31.00;;;18.58;;
20880;SDS011;10600;53.096;8.802;2023-02-27T05:50:25;35.58;;;19.45;;
20880;SDS011;10600;53.096;8.802;2023-02-27T05:51:30;34.08;;;18.58;;
20880;SDS011;10600;53.096;8.802;2023-02-27T05:52:34;32.35;;;18.05;;
20880;SDS011;10600;53.096;8.802;2023-02-27T05:53:38;33.85;;;18.83;;
20880;SDS011;10600;53.096;8.802;2023-02-27T05:54:54;32.92;;;18.25;;
20880;SDS011;10600;53.096;8.802;2023-02-27T05:56:00;30.90;;;18.55;;
20880;SDS011;10600;53.096;8.802;2023-02-27T05:57:06;35.10;;;18.05;;
20880;SDS011;10600;53.096;8.802;2023-02-27T05:58:26;33.45;;;19.05;;
20880;SDS011;10600;53.096;8.802;2023-02-27T05:59:41;31.27;;;18.45;;
20880;SDS011;10600;53.096;8.802;2023-02-27T06:00:50;35.95;;;18.83;;
20880;SDS011;10600;53.096;8.802;2023-02-27T06:01:53;28.48;;;17.23;;
20880;SDS011;10600;53.096;8.802;2023-02-27T06:02:53;33.78;;;20.33;;
20880;SDS011;10600;53.096;8.802;2023-02-27T06:03:54;34.25;;;18.85;;
20880;SDS011;10600;53.096;8.802;2023-02-27T06:04:55;38.88;;;19.42;;
20880;SDS011;10600;53.096;8.802;2023-02-27T06:05:56;39.33;;;19.65;;
20880;SDS011;10600;53.096;8.802;2023-02-27T06:06:59;31.02;;;18.92;;
20880;SDS011;10600;53.096;8.802;2023-02-27T06:08:00;39.30;;;19.83;;
20880;SDS011;10600;53.096;8.802;2023-02-27T06:09:00;35.22;;;19.30;;
20880;SDS011;10600;53.096;8.802;2023-02-27T06:10:02;32.78;;;18.38;;
20880;SDS011;10600;53.096;8.802;2023-02-27T06:11:05;35.10;;;20.45;;
20880;SDS011;10600;53.096;8.802;2023-02-27T06:12:06;32.92;;;18.67;;
20880;SDS011;10600;53.096;8.802;2023-02-27T06:13:06;32.50;;;19.17;;
20880;SDS011;10600;53.096;8.802;2023-02-27T06:14:07;31.55;;;18.48;;
20880;SDS011;10600;53.096;8.802;2023-02-27T06:15:08;36.72;;;19.00;;
20880;SDS011;10600;53.096;8.802;2023-02-27T06:16:09;28.63;;;17.77;;
20880;SDS011;10600;53.096;8.802;2023-02-27T06:17:12;33.30;;;18.90;;
20880;SDS011;10600;53.096;8.802;2023-02-27T06:18:13;37.65;;;20.38;;
20880;SDS011;10600;53.096;8.802;2023-02-27T06:19:15;31.98;;;18.42;;
20880;SDS011;10600;53.096;8.802;2023-02-27T06:20:16;32.22;;;19.55;;
20880;SDS011;10600;53.096;8.802;2023-02-27T06:21:16;38.75;;;20.25;;
20880;SDS011;10600;53.096;8.802;2023-02-27T06:22:20;33.38;;;19.92;;
20880;SDS011;10600;53.096;8.802;2023-02-27T06:23:20;34.65;;;20.33;;
20880;SDS011;10600;53.096;8.802;2023-02-27T06:24:21;34.50;;;21.02;;
20880;SDS011;10600;53.096;8.802;2023-02-27T06:25:21;35.08;;;19.70;;
20880;SDS011;10600;53.096;8.802;2023-02-27T06:26:22;36.72;;;20.92;;
20880;SDS011;10600;53.096;8.802;2023-02-27T06:27:23;39.47;;;20.65;;
20880;SDS011;10600;53.096;8.802;2023-02-27T06:28:25;36.83;;;19.52;;
20880;SDS011;10600;53.096;8.802;2023-02-27T06:29:26;34.58;;;20.00;;
20880;SDS011;10600;53.096;8.802;2023-02-27T06:30:27;35.20;;;20.25;;
20880;SDS011;10600;53.096;8.802;2023-02-27T06:31:27;36.90;;;19.92;;
20880;SDS011;10600;53.096;8.802;2023-02-27T06:32:28;40.08;;;21.75;;
20880;SDS011;10600;53.096;8.802;2023-02-27T06:33:28;40.38;;;22.33;;
20880;SDS011;10600;53.096;8.802;2023-02-27T06:34:29;37.75;;;21.85;;
20880;SDS011;10600;53.096;8.802;2023-02-27T06:35:30;38.33;;;21.90;;
20880;SDS011;10600;53.096;8.802;2023-02-27T06:36:30;42.83;;;23.40;;
20880;SDS011;10600;53.096;8.802;2023-02-27T06:37:31;41.38;;;23.50;;
20880;SDS011;10600;53.096;8.802;2023-02-27T06:38:32;41.30;;;23.88;;
20880;SDS011;10600;53.096;8.802;2023-02-27T06:39:33;42.15;;;21.90;;
20880;SDS011;10600;53.096;8.802;2023-02-27T06:40:33;39.60;;;21.65;;
20880;SDS011;10600;53.096;8.802;2023-02-27T06:41:34;41.20;;;22.90;;
20880;SDS011;10600;53.096;8.802;2023-02-27T06:42:34;43.05;;;22.75;;
20880;SDS011;10600;53.096;8.802;2023-02-27T06:43:35;44.83;;;23.65;;
20880;SDS011;10600;53.096;8.802;2023-02-27T06:44:36;39.00;;;22.38;;
20880;SDS011;10600;53.096;8.802;2023-02-27T06:45:37;45.72;;;23.15;;
20880;SDS011;10600;53.096;8.802;2023-02-27T06:46:38;41.40;;;24.80;;
20880;SDS011;10600;53.096;8.802;2023-02-27T06:47:39;44.08;;;23.92;;
20880;SDS011;10600;53.096;8.802;2023-02-27T06:48:40;41.08;;;23.98;;
20880;SDS011;10600;53.096;8.802;2023-02-27T06:49:41;40.58;;;24.20;;
20880;SDS011;10600;53.096;8.802;2023-02-27T06:50:41;41.63;;;22.25;;
20880;SDS011;10600;53.096;8.802;2023-02-27T06:51:42;39.10;;;24.27;;
20880;SDS011;10600;53.096;8.802;2023-02-27T06:52:42;37.95;;;22.50;;
20880;SDS011;10600;53.096;8.802;2023-02-27T06:53:43;41.75;;;23.30;;
20880;SDS011;10600;53.096;8.802;2023-02-27T06:54:44;37.72;;;23.52;;
20880;SDS011;10600;53.096;8.802;2023-02-27T06:55:44;36.97;;;22.25;;
20880;SDS011;10600;53.096;8.802;2023-02-27T06:56:45;35.88;;;21.15;;
20880;SDS011;10600;53.096;8.802;2023-02-27T06:57:47;43.30;;;23.20;;
20880;SDS011;10600;53.096;8.802;2023-02-27T06:58:48;35.38;;;21.83;;
20880;SDS011;10600;53.096;8.802;2023-02-27T06:59:48;38.40;;;21.30;;
20880;SDS011;10600;53.096;8.802;2023-02-27T07:00:49;35.65;;;22.30;;
20880;SDS011;10600;53.096;8.802;2023-02-27T07:01:50;38.80;;;22.17;;
20880;SDS011;10600;53.096;8.802;2023-02-27T07:02:50;38.50;;;21.27;;
20880;SDS011;10600;53.096;8.802;2023-02-27T07:03:51;37.40;;;21.20;;
20880;SDS011;10600;53.096;8.802;2023-02-27T07:04:52;38.08;;;21.25;;
20880;SDS011;10600;53.096;8.802;2023-02-27T07:05:52;37.17;;;21.42;;
20880;SDS011;10600;53.096;8.802;2023-02-27T07:06:53;35.70;;;21.13;;
20880;SDS011;10600;53.096;8.802;2023-02-27T07:07:54;38.28;;;22.05;;
20880;SDS011;10600;53.096;8.802;2023-02-27T07:08:54;35.47;;;20.52;;
20880;SDS011;10600;53.096;8.802;2023-02-27T07:09:55;30.83;;;20.67;;
20880;SDS011;10600;53.096;8.802;2023-02-27T07:10:55;33.58;;;20.77;;
20880;SDS011;10600;53.096;8.802;2023-02-27T07:11:56;39.60;;;21.90;;
20880;SDS011;10600;53.096;8.802;2023-02-27T07:12:57;36.85;;;22.13;;
20880;SDS011;10600;53.096;8.802;2023-02-27T07:13:57;35.00;;;20.02;;
20880;SDS011;10600;53.096;8.802;2023-02-27T07:14:58;36.38;;;20.77;;
20880;SDS011;10600;53.096;8.802;2023-02-27T07:15:59;32.78;;;20.42;;
20880;SDS011;10600;53.096;8.802;2023-02-27T07:16:59;33.20;;;19.33;;
20880;SDS011;10600;53.096;8.802;2023-02-27T07:18:03;31.08;;;19.55;;
20880;SDS011;10600;53.096;8.802;2023-02-27T07:19:04;34.67;;;19.70;;
20880;SDS011;10600;53.096;8.802;2023-02-27T07:20:05;32.42;;;18.67;;
20880;SDS011;10600;53.096;8.802;2023-02-27T07:21:07;30.85;;;17.58;;
20880;SDS011;10600;53.096;8.802;2023-02-27T07:22:08;35.80;;;19.05;;
20880;SDS011;10600;53.096;8.802;2023-02-27T07:23:09;41.90;;;22.15;;
20880;SDS011;10600;53.096;8.802;2023-02-27T07:24:09;35.95;;;19.40;;
20880;SDS011;10600;53.096;8.802;2023-02-27T07:25:10;40.63;;;21.20;;
20880;SDS011;10600;53.096;8.802;2023-02-27T07:26:11;48.08;;;25.50;;